Terminal Aerodrome Forecast
Issued by NWS Cleveland, OH

Home | Current Version | Previous Version | Text Only | Print | Product List | Glossary On
Versions: 1 2 3 4 5 6 7 8 9 10 11 12 13 14 15 16 17 18 19 20 21 22 23 24 25 26
000
FTUS41 KCLE 041137
TAFERI
TAF
KERI 041137Z 0412/0512 18006KT P6SM SCT100
     FM041400 20008KT P6SM BKN100
     FM041900 02008KT P6SM SCT050 OVC100
      TEMPO 0422/0502 5SM -SHRA OVC050
     FM050200 04006KT P6SM SCT025 BKN150=

USA.gov is the U.S. government's official web portal to all federal, state and local government web resources and services.